KALN/ALN METAR and TAF weather

Enter ICAO airport designator
Station Type Date Time Source
KALN METAR 2022/11/27 07:35 UTC NOAA

KALN 270735Z AUTO 09006KT 3SM BR OVC004 09/09 A2943 RMK AO2 T00900087


Station Type Date Time Source
KALN Decoded METAR 2022/11/27 07:35 UTC NOAA

Alton/St. Louis, St. Louis Regional Airport, IL, United States (KALN) 38-54N 090-03W
Nov 27, 2022 - 02:35 AM EST / 2022.11.27 0735 UTC
Wind: from the E (090 degrees) at 7 MPH (6 KT):0
Visibility: 3 mile(s):0
Sky conditions: overcast
Weather: mist
Temperature: 48.2 F (9.0 C)
Dew Point: 47.7 F (8.7 C)
Relative Humidity: 97%
Pressure (altimeter): 29.43 in. Hg (996 hPa)
ob: KALN 270735Z AUTO 09006KT 3SM BR OVC004 09/09 A2943 RMK AO2 T00900087
cycle: 7

Station Type Date Time Source
KALN TAF UTC NOAA

Error!

Example: see airport list